createdAt,value
2022-10-26T00:00:26.790Z,25.63
2022-10-26T00:02:55.187Z,25.80
2022-10-26T00:05:22.918Z,25.90
2022-10-26T00:07:50.955Z,25.67
2022-10-26T00:10:21.623Z,25.10
2022-10-26T00:12:50.161Z,29.70
2022-10-26T00:15:18.257Z,31.80
2022-10-26T00:17:47.623Z,44.23
2022-10-26T00:20:15.868Z,24.77
2022-10-26T00:22:43.678Z,28.40
2022-10-26T00:25:11.323Z,24.10
2022-10-26T00:27:38.899Z,23.40
2022-10-26T00:30:07.374Z,22.17
2022-10-26T00:32:35.202Z,34.63
2022-10-26T00:35:11.869Z,26.77
2022-10-26T00:37:55.388Z,26.23
2022-10-26T00:40:23.030Z,26.27
2022-10-26T00:42:50.845Z,26.63
2022-10-26T00:45:21.401Z,26.53
2022-10-26T00:47:50.183Z,20.67
2022-10-26T00:50:20.704Z,25.20
2022-10-26T00:52:49.249Z,25.23
2022-10-26T00:55:21.208Z,25.63
2022-10-26T00:57:50.624Z,23.20
2022-10-26T01:00:18.325Z,24.63
2022-10-26T01:02:47.812Z,26.90
2022-10-26T01:05:16.995Z,25.30
2022-10-26T01:07:46.649Z,23.97
2022-10-26T01:10:15.206Z,22.50
2022-10-26T01:12:43.303Z,23.70
2022-10-26T01:15:11.122Z,25.20
2022-10-26T01:17:45.323Z,27.43
2022-10-26T01:20:27.906Z,26.03
2022-10-26T01:22:58.789Z,23.57
2022-10-26T01:25:33.077Z,28.00
2022-10-26T01:28:02.474Z,24.60
2022-10-26T01:30:37.273Z,29.00
2022-10-26T01:33:11.890Z,32.07
2022-10-26T01:35:40.827Z,33.87
2022-10-26T01:38:11.556Z,35.80
2022-10-26T01:40:41.225Z,29.43
2022-10-26T01:43:12.578Z,22.97
2022-10-26T01:45:43.225Z,26.20
2022-10-26T01:48:13.173Z,30.63
2022-10-26T01:50:41.469Z,33.97
2022-10-26T01:53:12.405Z,28.13
2022-10-26T01:55:50.687Z,29.97
2022-10-26T01:58:36.998Z,23.63
2022-10-26T02:01:11.503Z,29.50
2022-10-26T02:03:42.099Z,30.03
2022-10-26T02:06:15.431Z,25.50
2022-10-26T02:08:51.559Z,27.90
2022-10-26T02:11:23.693Z,25.60
2022-10-26T02:13:54.058Z,27.40
2022-10-26T02:16:25.651Z,26.40
2022-10-26T02:18:57.433Z,27.83
2022-10-26T02:21:29.100Z,31.50
2022-10-26T02:23:57.590Z,30.30
2022-10-26T02:26:26.248Z,26.77
2022-10-26T02:28:56.030Z,29.77
2022-10-26T02:31:25.620Z,27.47
2022-10-26T02:33:55.440Z,27.13
2022-10-26T02:36:25.782Z,31.07
2022-10-26T02:38:54.949Z,28.37
2022-10-26T02:41:24.465Z,33.77
2022-10-26T02:43:55.552Z,27.80
2022-10-26T02:46:26.466Z,26.43
2022-10-26T02:48:54.120Z,27.93
2022-10-26T02:51:25.008Z,29.63
2022-10-26T02:53:54.623Z,28.00
2022-10-26T02:56:24.543Z,27.87
2022-10-26T02:58:53.769Z,31.50
2022-10-26T03:01:21.508Z,33.53
2022-10-26T03:03:50.716Z,25.07
2022-10-26T03:06:21.935Z,31.53
2022-10-26T03:08:49.807Z,25.17
2022-10-26T03:11:17.450Z,25.97
2022-10-26T03:13:45.023Z,24.27
2022-10-26T03:16:12.791Z,26.47
2022-10-26T03:18:40.247Z,28.03
2022-10-26T03:21:09.408Z,32.97
2022-10-26T03:23:36.986Z,36.17
2022-10-26T03:26:04.606Z,34.63
2022-10-26T03:28:32.525Z,31.87
2022-10-26T03:31:00.030Z,32.90
2022-10-26T03:33:28.032Z,31.33
2022-10-26T03:35:57.059Z,32.47
2022-10-26T03:38:26.618Z,28.20
2022-10-26T03:40:54.146Z,27.83
2022-10-26T03:43:21.938Z,27.80
2022-10-26T03:45:49.804Z,32.73
2022-10-26T03:48:17.291Z,30.67
2022-10-26T03:50:45.228Z,24.67
2022-10-26T03:53:12.759Z,26.73
2022-10-26T03:55:44.673Z,24.60
2022-10-26T03:58:12.417Z,24.10
2022-10-26T04:00:39.937Z,28.23
2022-10-26T04:03:07.522Z,26.40
2022-10-26T04:05:35.162Z,24.63
2022-10-26T04:08:03.932Z,29.37
2022-10-26T04:10:31.743Z,28.63
2022-10-26T04:13:01.321Z,26.67
2022-10-26T04:15:28.883Z,26.97
2022-10-26T04:17:57.018Z,27.30
2022-10-26T04:20:25.075Z,30.00
2022-10-26T04:22:57.947Z,30.03
2022-10-26T04:25:27.609Z,26.70
2022-10-26T04:27:58.037Z,28.57
2022-10-26T04:30:27.333Z,29.10
2022-10-26T04:32:55.240Z,26.40
2022-10-26T04:35:22.833Z,29.80
2022-10-26T04:37:50.543Z,24.80
2022-10-26T04:40:18.061Z,24.93
2022-10-26T04:42:45.967Z,37.27
2022-10-26T04:45:14.594Z,31.63
2022-10-26T04:47:44.023Z,30.07
2022-10-26T04:50:12.425Z,38.07
2022-10-26T04:52:40.688Z,32.77
2022-10-26T04:55:08.612Z,28.30
2022-10-26T04:57:36.440Z,24.67
2022-10-26T05:00:04.903Z,29.73
2022-10-26T05:02:32.435Z,30.67
2022-10-26T05:05:01.421Z,28.63
2022-10-26T05:07:29.536Z,31.33
2022-10-26T05:09:57.191Z,30.43
2022-10-26T05:12:24.839Z,33.20
2022-10-26T05:14:52.320Z,27.53
2022-10-26T05:17:19.757Z,30.20
2022-10-26T05:19:55.608Z,26.17
2022-10-26T05:22:24.583Z,32.97
2022-10-26T05:24:52.268Z,31.50
2022-10-26T05:27:19.806Z,28.90
2022-10-26T05:29:47.280Z,29.03
2022-10-26T05:32:14.930Z,34.60
2022-10-26T05:34:42.442Z,31.60
2022-10-26T05:37:10.030Z,34.43
2022-10-26T05:39:38.919Z,38.50
2022-10-26T05:42:06.640Z,30.50
2022-10-26T05:44:34.146Z,26.37
2022-10-26T05:47:01.748Z,27.47
2022-10-26T05:49:29.489Z,34.37
2022-10-26T05:51:57.306Z,27.87
2022-10-26T05:54:24.880Z,28.50
2022-10-26T05:56:54.301Z,32.17
2022-10-26T05:59:22.526Z,28.77
2022-10-26T06:01:57.340Z,37.37
2022-10-26T06:04:31.710Z,33.20
2022-10-26T06:06:59.795Z,37.23
2022-10-26T06:09:27.519Z,38.60
2022-10-26T06:11:57.448Z,41.03
2022-10-26T06:14:25.381Z,35.93
2022-10-26T06:17:07.941Z,44.50
2022-10-26T06:19:41.017Z,44.63
2022-10-26T06:22:14.194Z,45.03
2022-10-26T06:24:45.159Z,36.50
2022-10-26T06:27:19.585Z,46.57
2022-10-26T06:29:51.611Z,53.40
2022-10-26T06:32:19.889Z,37.80
2022-10-26T06:34:49.749Z,42.40
2022-10-26T06:37:18.035Z,57.17
2022-10-26T06:39:48.915Z,50.20
2022-10-26T06:42:20.923Z,43.03
2022-10-26T06:44:48.809Z,47.07
2022-10-26T06:47:22.714Z,41.73
2022-10-26T06:49:56.573Z,37.90
2022-10-26T06:52:28.722Z,35.60
2022-10-26T06:54:56.708Z,40.83
2022-10-26T06:57:27.697Z,37.20
2022-10-26T06:59:57.568Z,38.43
2022-10-26T07:02:25.144Z,47.43
2022-10-26T07:04:52.883Z,46.30
2022-10-26T07:07:21.266Z,51.90
2022-10-26T07:09:49.005Z,40.50
2022-10-26T07:12:16.809Z,38.93
2022-10-26T07:14:45.650Z,42.40
2022-10-26T07:17:13.258Z,42.13
2022-10-26T07:19:43.007Z,37.60
2022-10-26T07:22:10.567Z,32.50
2022-10-26T07:24:38.098Z,40.97
2022-10-26T07:27:06.296Z,39.77
2022-10-26T07:29:35.536Z,35.30
2022-10-26T07:32:04.572Z,56.33
2022-10-26T07:34:32.547Z,40.20
2022-10-26T07:37:00.398Z,46.73
2022-10-26T07:39:28.425Z,42.57
2022-10-26T07:41:55.996Z,40.33
2022-10-26T07:44:23.591Z,39.27
2022-10-26T07:46:51.171Z,36.93
2022-10-26T07:49:20.763Z,44.10
2022-10-26T07:51:49.108Z,42.17
2022-10-26T07:54:17.945Z,42.70
2022-10-26T07:56:45.529Z,52.87
2022-10-26T07:59:13.184Z,36.37
2022-10-26T08:01:41.208Z,36.00
2022-10-26T08:04:08.920Z,38.17
2022-10-26T08:06:37.938Z,36.37
2022-10-26T08:09:05.647Z,36.73
2022-10-26T08:11:33.422Z,43.43
2022-10-26T08:14:01.001Z,38.70
2022-10-26T08:16:28.606Z,33.70
2022-10-26T08:18:56.162Z,31.60
2022-10-26T08:21:36.221Z,43.70
2022-10-26T08:24:08.846Z,32.47
2022-10-26T08:26:36.493Z,36.97
2022-10-26T08:29:04.033Z,47.10
2022-10-26T08:31:31.496Z,29.53
2022-10-26T08:33:59.611Z,29.53
2022-10-26T08:36:28.464Z,32.40
2022-10-26T08:38:56.177Z,35.20
2022-10-26T08:41:29.461Z,30.10
2022-10-26T08:43:58.845Z,24.43
2022-10-26T08:46:28.796Z,27.27
2022-10-26T08:48:57.169Z,31.40
2022-10-26T08:51:26.932Z,29.37
2022-10-26T08:53:58.086Z,23.03
2022-10-26T08:56:27.855Z,23.03
2022-10-26T08:58:56.179Z,23.40
2022-10-26T09:01:24.194Z,22.03
2022-10-26T09:03:52.062Z,21.37
2022-10-26T09:06:25.184Z,22.97
2022-10-26T09:08:57.642Z,25.93
2022-10-26T09:11:34.307Z,28.43
2022-10-26T09:14:05.257Z,28.87
2022-10-26T09:16:35.961Z,22.90
2022-10-26T09:19:10.496Z,25.10
2022-10-26T09:21:42.027Z,28.00
2022-10-26T09:24:14.432Z,24.30
2022-10-26T09:26:52.094Z,26.07
2022-10-26T09:29:20.271Z,26.83
2022-10-26T09:31:51.095Z,17.67
2022-10-26T09:34:23.541Z,33.27
2022-10-26T09:36:54.030Z,26.70
2022-10-26T09:39:24.634Z,22.63
2022-10-26T09:41:56.809Z,31.83
2022-10-26T09:44:27.253Z,19.50
2022-10-26T09:46:57.674Z,18.27
2022-10-26T09:49:31.058Z,18.90
2022-10-26T09:51:58.840Z,20.23
2022-10-26T09:54:26.459Z,16.30
2022-10-26T09:56:57.631Z,17.17
2022-10-26T09:59:26.468Z,20.60
2022-10-26T10:01:54.143Z,20.00
2022-10-26T10:04:24.228Z,17.37
2022-10-26T10:06:52.704Z,17.43
2022-10-26T10:09:21.008Z,20.03
2022-10-26T10:11:55.058Z,25.10
2022-10-26T10:14:24.949Z,21.33
2022-10-26T10:16:54.407Z,22.00
2022-10-26T10:19:26.560Z,16.00
2022-10-26T10:21:59.516Z,17.67
2022-10-26T10:24:28.676Z,27.67
2022-10-26T10:27:00.561Z,31.33
2022-10-26T10:29:29.806Z,14.77
2022-10-26T10:31:58.455Z,14.00
2022-10-26T10:34:26.211Z,19.00
2022-10-26T10:36:54.340Z,12.43
2022-10-26T10:39:38.754Z,16.13
2022-10-26T10:42:08.497Z,15.40
2022-10-26T10:44:37.491Z,13.77
2022-10-26T10:47:06.168Z,14.50
2022-10-26T10:49:34.225Z,12.97
2022-10-26T10:52:01.817Z,28.90
2022-10-26T10:54:31.150Z,12.30
2022-10-26T10:57:02.971Z,10.80
2022-10-26T10:59:43.757Z,18.30
2022-10-26T11:02:22.746Z,13.40
2022-10-26T11:05:01.255Z,15.27
2022-10-26T11:07:29.212Z,11.10
2022-10-26T11:10:01.566Z,11.63
2022-10-26T11:12:31.347Z,16.20
2022-10-26T11:15:01.670Z,12.17
2022-10-26T11:17:32.321Z,14.33
2022-10-26T11:20:02.709Z,10.40
2022-10-26T11:22:34.166Z,11.40
2022-10-26T11:25:04.933Z,11.93
2022-10-26T11:27:35.136Z,16.60
2022-10-26T11:30:07.414Z,18.77
2022-10-26T11:32:38.279Z,12.97
2022-10-26T11:38:03.922Z,11.47
2022-10-26T11:40:35.120Z,11.60
2022-10-26T11:43:07.710Z,10.00
2022-10-26T11:45:38.553Z,14.27
2022-10-26T11:48:13.353Z,14.53
2022-10-26T11:50:43.170Z,12.10
2022-10-26T11:53:13.651Z,11.23
2022-10-26T11:55:41.971Z,11.47
2022-10-26T11:58:10.217Z,17.73
2022-10-26T12:00:42.825Z,13.63
2022-10-26T12:03:14.402Z,11.53
2022-10-26T12:05:45.620Z,10.20
2022-10-26T12:08:16.307Z,12.70
2022-10-26T12:10:49.509Z,11.37
2022-10-26T12:13:21.079Z,9.70
2022-10-26T12:16:02.931Z,13.10
2022-10-26T12:18:54.064Z,10.60
2022-10-26T12:21:21.968Z,14.57
2022-10-26T12:23:56.757Z,11.43
2022-10-26T12:26:48.708Z,11.73
2022-10-26T12:29:35.809Z,11.20
2022-10-26T12:32:05.546Z,14.87
2022-10-26T12:34:51.959Z,10.67
2022-10-26T12:37:24.299Z,13.10
2022-10-26T12:39:52.072Z,9.80
2022-10-26T12:42:30.250Z,11.13
2022-10-26T12:45:18.967Z,11.53
2022-10-26T12:48:10.782Z,10.13
2022-10-26T12:50:52.118Z,13.03
2022-10-26T12:53:21.100Z,15.27
2022-10-26T12:56:06.118Z,13.27
2022-10-26T12:58:52.173Z,14.90
2022-10-26T13:01:31.993Z,9.87
2022-10-26T13:04:09.466Z,8.80
2022-10-26T13:06:41.225Z,8.60
2022-10-26T13:09:13.215Z,12.57
2022-10-26T13:11:47.201Z,8.80
2022-10-26T13:14:20.158Z,13.50
2022-10-26T13:16:47.855Z,12.00
2022-10-26T13:19:25.821Z,8.90
2022-10-26T13:21:53.441Z,10.47
2022-10-26T13:24:23.640Z,13.87
2022-10-26T13:27:09.991Z,10.20
2022-10-26T13:30:07.607Z,11.00
2022-10-26T13:32:37.355Z,16.73
2022-10-26T13:35:07.347Z,10.40
2022-10-26T13:37:35.801Z,9.50
2022-10-26T13:40:05.932Z,9.07
2022-10-26T13:45:10.313Z,12.97
2022-10-26T13:47:42.561Z,12.30
2022-10-26T13:50:15.896Z,21.10
2022-10-26T13:52:44.613Z,11.93
2022-10-26T13:55:16.499Z,13.37
2022-10-26T13:57:45.188Z,12.60
2022-10-26T14:00:17.904Z,10.00
2022-10-26T14:02:45.778Z,8.60
2022-10-26T14:05:15.838Z,12.93
2022-10-26T14:07:46.095Z,9.13
2022-10-26T14:10:25.034Z,12.70
2022-10-26T14:12:53.012Z,8.43
2022-10-26T14:15:24.872Z,9.10
2022-10-26T14:17:53.433Z,7.40
2022-10-26T14:20:23.666Z,11.13
2022-10-26T14:22:51.852Z,12.27
2022-10-26T14:25:26.769Z,14.73
2022-10-26T14:28:21.019Z,9.13
2022-10-26T14:30:49.255Z,10.03
2022-10-26T14:33:20.645Z,11.03
2022-10-26T14:35:49.993Z,8.13
2022-10-26T14:38:20.830Z,11.23
2022-10-26T14:40:49.379Z,9.33
2022-10-26T14:43:19.108Z,10.60
2022-10-26T14:45:49.868Z,9.20
2022-10-26T14:48:22.739Z,11.10
2022-10-26T14:51:01.622Z,8.60
2022-10-26T14:53:31.710Z,8.90
2022-10-26T14:55:59.331Z,10.57
2022-10-26T15:01:16.324Z,9.90
2022-10-26T15:03:44.968Z,10.60
2022-10-26T15:06:40.953Z,10.50
2022-10-26T15:09:29.363Z,9.10
2022-10-26T15:11:57.095Z,9.87
2022-10-26T15:14:24.629Z,8.90
2022-10-26T15:16:53.383Z,14.37
2022-10-26T15:19:26.901Z,16.43
2022-10-26T15:21:58.026Z,18.17
2022-10-26T15:24:33.149Z,12.80
2022-10-26T15:27:04.488Z,12.50
2022-10-26T15:29:35.902Z,13.10
2022-10-26T15:34:36.493Z,10.87
2022-10-26T15:37:05.361Z,24.77
2022-10-26T15:39:33.090Z,9.70
2022-10-26T15:42:01.777Z,18.90
2022-10-26T15:44:29.498Z,15.20
2022-10-26T15:47:05.117Z,17.70
2022-10-26T15:49:35.627Z,13.10
2022-10-26T15:52:03.283Z,10.70
2022-10-26T15:54:32.148Z,16.10
2022-10-26T15:57:00.287Z,11.07
2022-10-26T15:59:27.838Z,11.13
2022-10-26T16:01:55.425Z,12.03
2022-10-26T16:04:23.331Z,12.33
2022-10-26T16:06:50.833Z,11.77
2022-10-26T16:09:19.288Z,16.17
2022-10-26T16:11:48.273Z,17.63
2022-10-26T16:14:16.009Z,17.77
2022-10-26T16:16:43.553Z,14.67
2022-10-26T16:19:30.237Z,18.13
2022-10-26T16:21:59.059Z,17.20
2022-10-26T16:24:27.030Z,17.33
2022-10-26T16:26:56.430Z,13.47
2022-10-26T16:29:24.279Z,13.13
2022-10-26T16:31:52.071Z,14.57
2022-10-26T16:34:19.617Z,12.47
2022-10-26T16:36:47.193Z,14.60
2022-10-26T16:39:14.946Z,17.60
2022-10-26T16:41:42.465Z,15.60
2022-10-26T16:44:13.685Z,28.37
2022-10-26T16:46:41.350Z,17.03
2022-10-26T16:49:08.881Z,20.00
2022-10-26T16:51:36.361Z,17.73
2022-10-26T16:54:03.987Z,14.30
2022-10-26T16:56:31.600Z,22.37
2022-10-26T16:58:59.208Z,22.33
2022-10-26T17:01:28.565Z,17.03
2022-10-26T17:03:56.753Z,16.33
2022-10-26T17:06:24.505Z,33.20
2022-10-26T17:08:52.674Z,30.60
2022-10-26T17:11:21.236Z,26.80
2022-10-26T17:13:49.043Z,23.07
2022-10-26T17:16:18.185Z,23.30
2022-10-26T17:18:47.469Z,22.33
2022-10-26T17:21:15.943Z,26.00
2022-10-26T17:23:43.619Z,15.83
2022-10-26T17:26:12.209Z,18.37
2022-10-26T17:28:40.025Z,20.00
2022-10-26T17:31:09.199Z,23.70
2022-10-26T17:33:37.283Z,18.93
2022-10-26T17:36:07.584Z,19.30
2022-10-26T17:38:36.315Z,18.07
2022-10-26T17:41:04.329Z,15.17
2022-10-26T17:43:32.355Z,22.50
2022-10-26T17:46:02.210Z,18.77
2022-10-26T17:48:30.411Z,22.53
2022-10-26T17:50:59.188Z,24.13
2022-10-26T17:53:28.226Z,21.63
2022-10-26T17:56:02.467Z,20.07
2022-10-26T17:58:30.415Z,21.97
2022-10-26T18:01:01.411Z,25.20
2022-10-26T18:03:29.439Z,26.53
2022-10-26T18:05:57.409Z,16.33
2022-10-26T18:08:25.105Z,70.70
2022-10-26T18:10:55.189Z,19.90
2022-10-26T18:13:22.882Z,16.60
2022-10-26T18:15:50.366Z,23.23
2022-10-26T18:18:17.996Z,19.33
2022-10-26T18:20:46.138Z,24.10
2022-10-26T18:23:13.709Z,19.07
2022-10-26T18:25:41.244Z,19.10
2022-10-26T18:30:39.528Z,20.00
2022-10-26T18:33:06.982Z,16.90
2022-10-26T18:35:34.700Z,16.37
2022-10-26T18:38:02.408Z,19.10
2022-10-26T18:40:29.946Z,18.03
2022-10-26T18:42:57.575Z,15.90
2022-10-26T18:45:26.710Z,22.83
2022-10-26T18:47:54.576Z,19.37
2022-10-26T18:50:22.767Z,23.63
2022-10-26T18:52:51.246Z,20.20
2022-10-26T18:55:18.757Z,17.83
2022-10-26T18:57:46.458Z,19.53
2022-10-26T19:00:14.794Z,22.30
2022-10-26T19:02:44.299Z,55.77
2022-10-26T19:05:14.494Z,26.10
2022-10-26T19:07:42.296Z,20.57
2022-10-26T19:10:12.647Z,25.23
2022-10-26T19:12:40.756Z,20.47
2022-10-26T19:15:08.589Z,22.13
2022-10-26T19:17:38.285Z,27.40
2022-10-26T19:20:12.967Z,19.40
2022-10-26T19:22:40.672Z,22.87
2022-10-26T19:25:08.765Z,20.40
2022-10-26T19:27:36.793Z,20.13
2022-10-26T19:30:04.452Z,16.40
2022-10-26T19:32:31.976Z,19.50
2022-10-26T19:34:59.927Z,17.77
2022-10-26T19:37:28.983Z,21.60
2022-10-26T19:39:56.817Z,22.80
2022-10-26T19:42:28.139Z,19.60
2022-10-26T19:44:56.034Z,17.50
2022-10-26T19:47:23.834Z,19.60
2022-10-26T19:49:56.030Z,21.20
2022-10-26T19:52:23.571Z,28.60
2022-10-26T19:54:52.868Z,21.77
2022-10-26T19:57:22.847Z,32.40
2022-10-26T19:59:50.744Z,20.83
2022-10-26T20:02:18.374Z,23.80
2022-10-26T20:04:48.166Z,20.50
2022-10-26T20:07:17.226Z,44.27
2022-10-26T20:09:45.043Z,24.13
2022-10-26T20:12:18.176Z,20.53
2022-10-26T20:14:46.121Z,28.20
2022-10-26T20:17:14.302Z,17.20
2022-10-26T20:19:42.300Z,25.37
2022-10-26T20:22:09.846Z,21.20
2022-10-26T20:24:37.494Z,26.00
2022-10-26T20:27:05.310Z,18.80
2022-10-26T20:29:37.292Z,21.20
2022-10-26T20:32:05.315Z,25.43
2022-10-26T20:34:32.923Z,21.10
2022-10-26T20:37:06.544Z,18.80
2022-10-26T20:39:34.459Z,39.53
2022-10-26T20:42:02.411Z,20.27
2022-10-26T20:44:32.274Z,44.60
2022-10-26T20:47:04.087Z,19.17
2022-10-26T20:49:32.207Z,18.30
2022-10-26T20:52:21.879Z,20.77
2022-10-26T20:54:53.176Z,17.67
2022-10-26T20:57:23.492Z,21.10
2022-10-26T20:59:53.043Z,20.50
2022-10-26T21:02:22.634Z,19.40
2022-10-26T21:04:50.696Z,22.27
2022-10-26T21:07:18.563Z,25.73
2022-10-26T21:09:46.291Z,21.17
2022-10-26T21:12:13.915Z,22.20
2022-10-26T21:14:42.896Z,15.90
2022-10-26T21:17:10.951Z,23.70
2022-10-26T21:19:41.375Z,19.97
2022-10-26T21:22:09.362Z,20.23
2022-10-26T21:24:37.277Z,26.80
2022-10-26T21:27:26.075Z,20.03
2022-10-26T21:29:54.164Z,20.17
2022-10-26T21:32:21.610Z,21.33
2022-10-26T21:34:52.335Z,26.30
2022-10-26T21:37:19.888Z,19.80
2022-10-26T21:39:47.370Z,43.03
2022-10-26T21:42:14.912Z,31.70
2022-10-26T21:44:42.670Z,17.23
2022-10-26T21:47:10.367Z,24.27
2022-10-26T21:49:38.415Z,20.37
2022-10-26T21:52:08.155Z,121.80
2022-10-26T21:54:35.677Z,20.80
2022-10-26T21:57:03.203Z,30.40
2022-10-26T21:59:31.018Z,22.27
2022-10-26T22:01:58.539Z,15.97
2022-10-26T22:04:26.290Z,15.70
2022-10-26T22:06:53.795Z,46.23
2022-10-26T22:09:23.801Z,35.43
2022-10-26T22:11:51.468Z,23.10
2022-10-26T22:14:19.204Z,22.73
2022-10-26T22:16:46.657Z,24.50
2022-10-26T22:19:14.191Z,18.47
2022-10-26T22:21:42.560Z,24.33
2022-10-26T22:24:10.086Z,24.70
2022-10-26T22:26:39.394Z,24.03
2022-10-26T22:29:07.159Z,23.57
2022-10-26T22:31:35.516Z,19.83
2022-10-26T22:34:07.397Z,23.10
2022-10-26T22:36:36.169Z,22.77
2022-10-26T22:39:03.931Z,20.70
2022-10-26T22:41:31.448Z,21.10
2022-10-26T22:44:00.451Z,26.43
2022-10-26T22:46:28.826Z,19.67
2022-10-26T22:48:56.779Z,19.50
2022-10-26T22:51:25.044Z,30.53
2022-10-26T22:53:53.371Z,18.80
2022-10-26T22:56:21.241Z,21.27
2022-10-26T22:58:49.574Z,21.70
2022-10-26T23:01:19.394Z,22.47
2022-10-26T23:03:47.098Z,22.80
2022-10-26T23:06:15.522Z,24.60
2022-10-26T23:08:43.401Z,21.70
2022-10-26T23:11:13.262Z,25.07
2022-10-26T23:13:41.011Z,21.40
2022-10-26T23:16:09.125Z,24.33
2022-10-26T23:18:38.262Z,26.37
2022-10-26T23:21:06.811Z,26.13
2022-10-26T23:23:34.558Z,25.10
2022-10-26T23:26:02.298Z,22.20
2022-10-26T23:28:29.968Z,23.47
2022-10-26T23:30:57.432Z,23.40
2022-10-26T23:33:25.332Z,26.03
2022-10-26T23:35:54.644Z,32.30
2022-10-26T23:38:23.032Z,19.83
2022-10-26T23:40:51.367Z,27.87
2022-10-26T23:43:19.106Z,34.33
2022-10-26T23:45:46.621Z,21.80
2022-10-26T23:48:14.434Z,19.93
2022-10-26T23:50:42.463Z,22.30
2022-10-26T23:53:12.366Z,22.60
2022-10-26T23:55:40.134Z,20.70
2022-10-26T23:58:07.742Z,20.30
